sensor_id;sensor_type;location;lat;lon;timestamp;P1;durP1;ratioP1;P2;durP2;ratioP2
5742;SDS011;2896;53.500;10.020;2022-07-22T00:02:26;38.20;;;29.13;;
5742;SDS011;2896;53.500;10.020;2022-07-22T00:04:53;38.37;;;30.17;;
5742;SDS011;2896;53.500;10.020;2022-07-22T00:07:19;34.70;;;26.63;;
5742;SDS011;2896;53.500;10.020;2022-07-22T00:09:46;59.13;;;31.13;;
5742;SDS011;2896;53.500;10.020;2022-07-22T00:12:13;41.80;;;29.93;;
5742;SDS011;2896;53.500;10.020;2022-07-22T00:14:39;45.50;;;31.93;;
5742;SDS011;2896;53.500;10.020;2022-07-22T00:17:06;35.37;;;24.60;;
5742;SDS011;2896;53.500;10.020;2022-07-22T00:19:34;33.93;;;26.57;;
5742;SDS011;2896;53.500;10.020;2022-07-22T00:22:02;44.03;;;29.03;;
5742;SDS011;2896;53.500;10.020;2022-07-22T00:24:29;33.67;;;27.07;;
5742;SDS011;2896;53.500;10.020;2022-07-22T00:26:55;33.53;;;26.03;;
5742;SDS011;2896;53.500;10.020;2022-07-22T00:29:22;48.43;;;29.47;;
5742;SDS011;2896;53.500;10.020;2022-07-22T00:31:49;41.57;;;27.70;;
5742;SDS011;2896;53.500;10.020;2022-07-22T00:34:15;30.17;;;21.37;;
5742;SDS011;2896;53.500;10.020;2022-07-22T00:36:43;25.10;;;18.93;;
5742;SDS011;2896;53.500;10.020;2022-07-22T00:39:10;23.33;;;15.47;;
5742;SDS011;2896;53.500;10.020;2022-07-22T00:41:36;16.77;;;12.47;;
5742;SDS011;2896;53.500;10.020;2022-07-22T00:44:04;15.40;;;11.80;;
5742;SDS011;2896;53.500;10.020;2022-07-22T00:46:33;16.33;;;9.80;;
5742;SDS011;2896;53.500;10.020;2022-07-22T00:49:02;9.03;;;7.50;;
5742;SDS011;2896;53.500;10.020;2022-07-22T00:51:30;13.87;;;6.90;;
5742;SDS011;2896;53.500;10.020;2022-07-22T00:53:58;12.77;;;5.70;;
5742;SDS011;2896;53.500;10.020;2022-07-22T00:56:27;20.43;;;5.50;;
5742;SDS011;2896;53.500;10.020;2022-07-22T00:58:55;8.00;;;5.57;;
5742;SDS011;2896;53.500;10.020;2022-07-22T01:01:24;6.87;;;6.37;;
5742;SDS011;2896;53.500;10.020;2022-07-22T01:03:51;7.00;;;6.50;;
5742;SDS011;2896;53.500;10.020;2022-07-22T01:06:18;12.53;;;6.93;;
5742;SDS011;2896;53.500;10.020;2022-07-22T01:08:44;7.73;;;7.13;;
5742;SDS011;2896;53.500;10.020;2022-07-22T01:11:13;8.97;;;8.23;;
5742;SDS011;2896;53.500;10.020;2022-07-22T01:13:42;9.40;;;8.37;;
5742;SDS011;2896;53.500;10.020;2022-07-22T01:16:10;12.57;;;8.03;;
5742;SDS011;2896;53.500;10.020;2022-07-22T01:18:38;8.27;;;7.67;;
5742;SDS011;2896;53.500;10.020;2022-07-22T01:21:07;6.63;;;6.13;;
5742;SDS011;2896;53.500;10.020;2022-07-22T01:23:35;7.30;;;6.70;;
5742;SDS011;2896;53.500;10.020;2022-07-22T01:26:02;7.00;;;6.50;;
5742;SDS011;2896;53.500;10.020;2022-07-22T01:28:29;9.90;;;6.23;;
5742;SDS011;2896;53.500;10.020;2022-07-22T01:30:56;10.33;;;6.97;;
5742;SDS011;2896;53.500;10.020;2022-07-22T01:33:23;11.03;;;9.90;;
5742;SDS011;2896;53.500;10.020;2022-07-22T01:35:50;11.10;;;10.00;;
5742;SDS011;2896;53.500;10.020;2022-07-22T01:38:19;11.20;;;10.10;;
5742;SDS011;2896;53.500;10.020;2022-07-22T01:40:46;17.03;;;11.63;;
5742;SDS011;2896;53.500;10.020;2022-07-22T01:43:13;14.90;;;13.47;;
5742;SDS011;2896;53.500;10.020;2022-07-22T01:45:42;18.10;;;14.20;;
5742;SDS011;2896;53.500;10.020;2022-07-22T01:48:10;18.93;;;14.03;;
5742;SDS011;2896;53.500;10.020;2022-07-22T01:50:37;15.20;;;12.73;;
5742;SDS011;2896;53.500;10.020;2022-07-22T01:53:04;17.67;;;12.90;;
5742;SDS011;2896;53.500;10.020;2022-07-22T01:55:32;13.80;;;11.33;;
5742;SDS011;2896;53.500;10.020;2022-07-22T01:57:59;19.70;;;12.70;;
5742;SDS011;2896;53.500;10.020;2022-07-22T02:00:25;17.43;;;11.77;;
5742;SDS011;2896;53.500;10.020;2022-07-22T02:02:52;16.77;;;11.80;;
5742;SDS011;2896;53.500;10.020;2022-07-22T02:05:19;16.47;;;12.57;;
5742;SDS011;2896;53.500;10.020;2022-07-22T02:07:45;15.90;;;11.37;;
5742;SDS011;2896;53.500;10.020;2022-07-22T02:10:14;20.17;;;11.73;;
5742;SDS011;2896;53.500;10.020;2022-07-22T02:12:42;19.43;;;12.00;;
5742;SDS011;2896;53.500;10.020;2022-07-22T02:15:09;16.70;;;11.70;;
5742;SDS011;2896;53.500;10.020;2022-07-22T02:17:36;16.13;;;10.17;;
5742;SDS011;2896;53.500;10.020;2022-07-22T02:20:03;18.60;;;8.30;;
5742;SDS011;2896;53.500;10.020;2022-07-22T02:22:31;16.37;;;8.40;;
5742;SDS011;2896;53.500;10.020;2022-07-22T02:24:57;16.57;;;8.83;;
5742;SDS011;2896;53.500;10.020;2022-07-22T02:27:24;11.37;;;7.77;;
5742;SDS011;2896;53.500;10.020;2022-07-22T02:29:52;8.67;;;7.03;;
5742;SDS011;2896;53.500;10.020;2022-07-22T02:32:18;22.07;;;8.70;;
5742;SDS011;2896;53.500;10.020;2022-07-22T02:34:45;16.87;;;7.20;;
5742;SDS011;2896;53.500;10.020;2022-07-22T02:37:12;10.63;;;5.80;;
5742;SDS011;2896;53.500;10.020;2022-07-22T02:39:38;7.97;;;5.60;;
5742;SDS011;2896;53.500;10.020;2022-07-22T02:42:05;15.30;;;6.00;;
5742;SDS011;2896;53.500;10.020;2022-07-22T02:44:32;6.23;;;5.00;;
5742;SDS011;2896;53.500;10.020;2022-07-22T02:47:00;15.43;;;5.60;;
5742;SDS011;2896;53.500;10.020;2022-07-22T02:49:26;11.13;;;5.83;;
5742;SDS011;2896;53.500;10.020;2022-07-22T02:51:53;15.17;;;6.20;;
5742;SDS011;2896;53.500;10.020;2022-07-22T02:54:19;9.00;;;5.63;;
5742;SDS011;2896;53.500;10.020;2022-07-22T02:56:47;12.43;;;5.80;;
5742;SDS011;2896;53.500;10.020;2022-07-22T02:59:13;11.33;;;5.60;;
5742;SDS011;2896;53.500;10.020;2022-07-22T03:01:40;13.77;;;6.53;;
5742;SDS011;2896;53.500;10.020;2022-07-22T03:04:08;11.30;;;5.30;;
5742;SDS011;2896;53.500;10.020;2022-07-22T03:06:35;16.40;;;7.60;;
5742;SDS011;2896;53.500;10.020;2022-07-22T03:09:02;11.87;;;7.63;;
5742;SDS011;2896;53.500;10.020;2022-07-22T03:11:29;17.43;;;6.00;;
5742;SDS011;2896;53.500;10.020;2022-07-22T03:13:56;13.43;;;6.20;;
5742;SDS011;2896;53.500;10.020;2022-07-22T03:16:22;12.17;;;6.77;;
5742;SDS011;2896;53.500;10.020;2022-07-22T03:18:49;9.20;;;6.27;;
5742;SDS011;2896;53.500;10.020;2022-07-22T03:21:17;15.60;;;5.20;;
5742;SDS011;2896;53.500;10.020;2022-07-22T03:23:43;10.83;;;4.87;;
5742;SDS011;2896;53.500;10.020;2022-07-22T03:26:10;15.47;;;4.90;;
5742;SDS011;2896;53.500;10.020;2022-07-22T03:28:37;13.47;;;3.83;;
5742;SDS011;2896;53.500;10.020;2022-07-22T03:31:03;14.00;;;5.27;;
5742;SDS011;2896;53.500;10.020;2022-07-22T03:33:30;12.73;;;4.53;;
5742;SDS011;2896;53.500;10.020;2022-07-22T03:35:57;11.87;;;4.13;;
5742;SDS011;2896;53.500;10.020;2022-07-22T03:38:25;10.10;;;3.57;;
5742;SDS011;2896;53.500;10.020;2022-07-22T03:40:51;9.20;;;4.20;;
5742;SDS011;2896;53.500;10.020;2022-07-22T03:43:20;13.80;;;4.10;;
5742;SDS011;2896;53.500;10.020;2022-07-22T03:45:47;5.30;;;3.53;;
5742;SDS011;2896;53.500;10.020;2022-07-22T03:48:14;12.83;;;3.77;;
5742;SDS011;2896;53.500;10.020;2022-07-22T03:50:40;10.33;;;3.10;;
5742;SDS011;2896;53.500;10.020;2022-07-22T03:53:07;14.23;;;3.10;;
5742;SDS011;2896;53.500;10.020;2022-07-22T03:55:36;11.63;;;3.00;;
5742;SDS011;2896;53.500;10.020;2022-07-22T03:58:03;11.00;;;4.07;;
5742;SDS011;2896;53.500;10.020;2022-07-22T04:00:29;11.10;;;3.00;;
5742;SDS011;2896;53.500;10.020;2022-07-22T04:02:56;6.63;;;3.63;;
5742;SDS011;2896;53.500;10.020;2022-07-22T04:05:23;6.87;;;2.80;;
5742;SDS011;2896;53.500;10.020;2022-07-22T04:07:49;8.27;;;3.50;;
5742;SDS011;2896;53.500;10.020;2022-07-22T04:10:16;6.50;;;2.50;;
5742;SDS011;2896;53.500;10.020;2022-07-22T04:12:44;10.63;;;2.63;;
5742;SDS011;2896;53.500;10.020;2022-07-22T04:15:11;8.57;;;2.80;;
5742;SDS011;2896;53.500;10.020;2022-07-22T04:17:37;11.13;;;3.13;;
5742;SDS011;2896;53.500;10.020;2022-07-22T04:20:04;12.70;;;3.17;;
5742;SDS011;2896;53.500;10.020;2022-07-22T04:22:32;10.77;;;3.50;;
5742;SDS011;2896;53.500;10.020;2022-07-22T04:24:58;3.20;;;2.83;;
5742;SDS011;2896;53.500;10.020;2022-07-22T04:27:25;9.03;;;2.70;;
5742;SDS011;2896;53.500;10.020;2022-07-22T04:29:53;13.13;;;3.07;;
5742;SDS011;2896;53.500;10.020;2022-07-22T04:32:19;15.00;;;4.10;;
5742;SDS011;2896;53.500;10.020;2022-07-22T04:34:46;10.63;;;4.90;;
5742;SDS011;2896;53.500;10.020;2022-07-22T04:37:13;9.77;;;5.27;;
5742;SDS011;2896;53.500;10.020;2022-07-22T04:39:39;10.43;;;5.07;;
5742;SDS011;2896;53.500;10.020;2022-07-22T04:42:06;10.07;;;6.20;;
5742;SDS011;2896;53.500;10.020;2022-07-22T04:44:33;13.30;;;5.90;;
5742;SDS011;2896;53.500;10.020;2022-07-22T04:47:00;12.50;;;5.60;;
5742;SDS011;2896;53.500;10.020;2022-07-22T04:49:27;9.00;;;6.10;;
5742;SDS011;2896;53.500;10.020;2022-07-22T04:51:54;18.40;;;7.03;;
5742;SDS011;2896;53.500;10.020;2022-07-22T04:54:21;9.60;;;6.50;;
5742;SDS011;2896;53.500;10.020;2022-07-22T04:56:47;9.80;;;6.57;;
5742;SDS011;2896;53.500;10.020;2022-07-22T04:59:14;13.40;;;6.67;;
5742;SDS011;2896;53.500;10.020;2022-07-22T05:01:40;17.23;;;6.13;;
5742;SDS011;2896;53.500;10.020;2022-07-22T05:04:08;17.03;;;7.37;;
5742;SDS011;2896;53.500;10.020;2022-07-22T05:06:35;14.57;;;6.20;;
5742;SDS011;2896;53.500;10.020;2022-07-22T05:09:02;14.33;;;6.80;;
5742;SDS011;2896;53.500;10.020;2022-07-22T05:11:29;21.37;;;7.53;;
5742;SDS011;2896;53.500;10.020;2022-07-22T05:13:55;12.30;;;6.57;;
5742;SDS011;2896;53.500;10.020;2022-07-22T05:16:22;18.20;;;6.80;;
5742;SDS011;2896;53.500;10.020;2022-07-22T05:18:48;14.10;;;6.63;;
5742;SDS011;2896;53.500;10.020;2022-07-22T05:21:16;20.90;;;5.50;;
5742;SDS011;2896;53.500;10.020;2022-07-22T05:23:43;15.10;;;6.20;;
5742;SDS011;2896;53.500;10.020;2022-07-22T05:26:10;16.43;;;5.90;;
5742;SDS011;2896;53.500;10.020;2022-07-22T05:28:36;25.73;;;6.73;;
5742;SDS011;2896;53.500;10.020;2022-07-22T05:31:03;12.90;;;5.00;;
5742;SDS011;2896;53.500;10.020;2022-07-22T05:33:30;19.70;;;5.10;;
5742;SDS011;2896;53.500;10.020;2022-07-22T05:35:56;16.07;;;4.87;;
5742;SDS011;2896;53.500;10.020;2022-07-22T05:38:24;6.70;;;4.30;;
5742;SDS011;2896;53.500;10.020;2022-07-22T05:40:51;17.40;;;5.20;;
5742;SDS011;2896;53.500;10.020;2022-07-22T05:43:18;11.00;;;4.90;;
5742;SDS011;2896;53.500;10.020;2022-07-22T05:45:45;13.97;;;5.00;;
5742;SDS011;2896;53.500;10.020;2022-07-22T05:48:11;20.33;;;5.63;;
5742;SDS011;2896;53.500;10.020;2022-07-22T05:50:38;9.57;;;5.30;;
5742;SDS011;2896;53.500;10.020;2022-07-22T05:53:05;9.03;;;4.70;;
5742;SDS011;2896;53.500;10.020;2022-07-22T05:55:32;19.90;;;5.87;;
5742;SDS011;2896;53.500;10.020;2022-07-22T05:57:59;21.23;;;5.33;;
5742;SDS011;2896;53.500;10.020;2022-07-22T06:00:26;20.33;;;5.30;;
5742;SDS011;2896;53.500;10.020;2022-07-22T06:02:52;14.00;;;4.90;;
5742;SDS011;2896;53.500;10.020;2022-07-22T06:05:19;18.67;;;4.60;;
5742;SDS011;2896;53.500;10.020;2022-07-22T06:07:45;13.00;;;5.07;;
5742;SDS011;2896;53.500;10.020;2022-07-22T06:10:12;13.93;;;5.53;;
5742;SDS011;2896;53.500;10.020;2022-07-22T06:12:40;9.93;;;5.03;;
5742;SDS011;2896;53.500;10.020;2022-07-22T06:15:07;8.97;;;4.63;;
5742;SDS011;2896;53.500;10.020;2022-07-22T06:17:34;14.83;;;5.00;;
5742;SDS011;2896;53.500;10.020;2022-07-22T06:20:01;6.63;;;4.00;;
5742;SDS011;2896;53.500;10.020;2022-07-22T06:22:28;10.50;;;4.20;;
5742;SDS011;2896;53.500;10.020;2022-07-22T06:24:55;13.90;;;4.60;;
5742;SDS011;2896;53.500;10.020;2022-07-22T06:27:24;14.93;;;4.20;;
5742;SDS011;2896;53.500;10.020;2022-07-22T06:29:52;16.27;;;5.43;;
5742;SDS011;2896;53.500;10.020;2022-07-22T06:32:18;13.03;;;5.00;;
5742;SDS011;2896;53.500;10.020;2022-07-22T06:34:45;25.70;;;5.13;;
5742;SDS011;2896;53.500;10.020;2022-07-22T06:37:12;24.50;;;5.70;;
5742;SDS011;2896;53.500;10.020;2022-07-22T06:39:39;12.90;;;4.37;;
5742;SDS011;2896;53.500;10.020;2022-07-22T06:42:05;21.30;;;4.50;;
5742;SDS011;2896;53.500;10.020;2022-07-22T06:44:32;16.87;;;4.77;;
5742;SDS011;2896;53.500;10.020;2022-07-22T06:47:00;29.30;;;5.10;;
5742;SDS011;2896;53.500;10.020;2022-07-22T06:49:27;20.07;;;4.40;;
5742;SDS011;2896;53.500;10.020;2022-07-22T06:51:53;18.83;;;4.37;;
5742;SDS011;2896;53.500;10.020;2022-07-22T06:54:20;22.20;;;4.40;;
5742;SDS011;2896;53.500;10.020;2022-07-22T06:56:46;10.70;;;4.50;;
5742;SDS011;2896;53.500;10.020;2022-07-22T06:59:13;14.90;;;4.40;;
5742;SDS011;2896;53.500;10.020;2022-07-22T07:01:40;16.97;;;4.40;;
5742;SDS011;2896;53.500;10.020;2022-07-22T07:04:07;13.73;;;4.17;;
5742;SDS011;2896;53.500;10.020;2022-07-22T07:06:34;19.33;;;4.47;;
5742;SDS011;2896;53.500;10.020;2022-07-22T07:09:01;21.33;;;4.33;;
5742;SDS011;2896;53.500;10.020;2022-07-22T07:11:28;18.83;;;3.70;;
5742;SDS011;2896;53.500;10.020;2022-07-22T07:13:55;18.63;;;4.50;;
5742;SDS011;2896;53.500;10.020;2022-07-22T07:16:21;16.33;;;3.83;;
5742;SDS011;2896;53.500;10.020;2022-07-22T07:18:48;14.43;;;3.60;;
5742;SDS011;2896;53.500;10.020;2022-07-22T07:21:16;20.87;;;4.60;;
5742;SDS011;2896;53.500;10.020;2022-07-22T07:23:42;24.10;;;3.93;;
5742;SDS011;2896;53.500;10.020;2022-07-22T07:26:09;13.60;;;4.60;;
5742;SDS011;2896;53.500;10.020;2022-07-22T07:28:36;16.50;;;4.17;;
5742;SDS011;2896;53.500;10.020;2022-07-22T07:31:03;13.47;;;3.67;;
5742;SDS011;2896;53.500;10.020;2022-07-22T07:33:29;22.13;;;4.40;;
5742;SDS011;2896;53.500;10.020;2022-07-22T07:35:56;9.33;;;3.27;;
5742;SDS011;2896;53.500;10.020;2022-07-22T07:38:24;13.30;;;4.63;;
5742;SDS011;2896;53.500;10.020;2022-07-22T07:40:51;16.20;;;3.60;;
5742;SDS011;2896;53.500;10.020;2022-07-22T07:43:17;19.17;;;3.57;;
5742;SDS011;2896;53.500;10.020;2022-07-22T07:45:45;18.60;;;3.40;;
5742;SDS011;2896;53.500;10.020;2022-07-22T07:48:12;15.40;;;4.10;;
5742;SDS011;2896;53.500;10.020;2022-07-22T07:50:38;17.87;;;3.53;;
5742;SDS011;2896;53.500;10.020;2022-07-22T07:53:05;16.83;;;3.70;;
5742;SDS011;2896;53.500;10.020;2022-07-22T07:55:33;27.90;;;5.00;;
5742;SDS011;2896;53.500;10.020;2022-07-22T07:58:02;25.27;;;3.77;;
5742;SDS011;2896;53.500;10.020;2022-07-22T08:00:29;21.43;;;3.30;;
5742;SDS011;2896;53.500;10.020;2022-07-22T08:02:57;15.17;;;3.67;;
5742;SDS011;2896;53.500;10.020;2022-07-22T08:05:24;21.50;;;5.07;;
5742;SDS011;2896;53.500;10.020;2022-07-22T08:07:50;9.70;;;4.00;;
5742;SDS011;2896;53.500;10.020;2022-07-22T08:10:17;11.27;;;3.00;;
5742;SDS011;2896;53.500;10.020;2022-07-22T08:12:46;18.40;;;3.63;;
5742;SDS011;2896;53.500;10.020;2022-07-22T08:15:13;17.57;;;3.50;;
5742;SDS011;2896;53.500;10.020;2022-07-22T08:17:40;22.70;;;4.33;;
5742;SDS011;2896;53.500;10.020;2022-07-22T08:20:08;9.50;;;3.80;;
5742;SDS011;2896;53.500;10.020;2022-07-22T08:22:35;15.27;;;3.50;;
5742;SDS011;2896;53.500;10.020;2022-07-22T08:25:01;11.17;;;3.60;;
5742;SDS011;2896;53.500;10.020;2022-07-22T08:27:28;11.53;;;3.30;;
5742;SDS011;2896;53.500;10.020;2022-07-22T08:29:56;13.17;;;3.33;;
5742;SDS011;2896;53.500;10.020;2022-07-22T08:32:23;18.07;;;4.00;;
5742;SDS011;2896;53.500;10.020;2022-07-22T08:34:50;13.00;;;3.17;;
5742;SDS011;2896;53.500;10.020;2022-07-22T08:37:16;13.73;;;3.10;;
5742;SDS011;2896;53.500;10.020;2022-07-22T08:39:43;15.37;;;2.67;;
5742;SDS011;2896;53.500;10.020;2022-07-22T08:42:09;18.43;;;2.97;;
5742;SDS011;2896;53.500;10.020;2022-07-22T08:44:38;11.53;;;2.90;;
5742;SDS011;2896;53.500;10.020;2022-07-22T08:47:06;13.40;;;3.47;;
5742;SDS011;2896;53.500;10.020;2022-07-22T08:49:33;15.90;;;4.03;;
5742;SDS011;2896;53.500;10.020;2022-07-22T08:52:00;15.30;;;3.50;;
5742;SDS011;2896;53.500;10.020;2022-07-22T08:54:27;16.03;;;3.67;;
5742;SDS011;2896;53.500;10.020;2022-07-22T08:56:54;12.30;;;3.60;;
5742;SDS011;2896;53.500;10.020;2022-07-22T08:59:20;15.03;;;3.60;;
5742;SDS011;2896;53.500;10.020;2022-07-22T09:02:03;17.67;;;2.97;;
5742;SDS011;2896;53.500;10.020;2022-07-22T09:04:33;14.83;;;3.00;;
5742;SDS011;2896;53.500;10.020;2022-07-22T09:07:22;13.13;;;2.97;;
5742;SDS011;2896;53.500;10.020;2022-07-22T09:09:50;6.13;;;2.60;;
5742;SDS011;2896;53.500;10.020;2022-07-22T09:12:17;8.37;;;3.30;;
5742;SDS011;2896;53.500;10.020;2022-07-22T09:14:44;13.40;;;3.07;;
5742;SDS011;2896;53.500;10.020;2022-07-22T09:17:24;12.20;;;3.30;;
5742;SDS011;2896;53.500;10.020;2022-07-22T09:19:55;15.70;;;3.07;;
5742;SDS011;2896;53.500;10.020;2022-07-22T09:22:32;7.87;;;2.63;;
5742;SDS011;2896;53.500;10.020;2022-07-22T09:25:17;7.00;;;2.83;;
5742;SDS011;2896;53.500;10.020;2022-07-22T09:27:45;9.23;;;2.40;;
5742;SDS011;2896;53.500;10.020;2022-07-22T09:30:13;10.17;;;2.73;;
5742;SDS011;2896;53.500;10.020;2022-07-22T09:32:41;12.63;;;3.00;;
5742;SDS011;2896;53.500;10.020;2022-07-22T09:35:11;2.80;;;2.27;;
5742;SDS011;2896;53.500;10.020;2022-07-22T09:37:46;7.50;;;2.83;;
5742;SDS011;2896;53.500;10.020;2022-07-22T09:40:14;7.13;;;2.63;;
5742;SDS011;2896;53.500;10.020;2022-07-22T09:42:46;10.40;;;2.70;;
5742;SDS011;2896;53.500;10.020;2022-07-22T09:45:14;10.23;;;3.13;;
5742;SDS011;2896;53.500;10.020;2022-07-22T09:47:42;8.57;;;2.20;;
5742;SDS011;2896;53.500;10.020;2022-07-22T09:50:15;14.90;;;3.43;;
5742;SDS011;2896;53.500;10.020;2022-07-22T09:52:46;6.07;;;3.07;;
5742;SDS011;2896;53.500;10.020;2022-07-22T09:55:14;6.40;;;2.40;;
5742;SDS011;2896;53.500;10.020;2022-07-22T09:57:42;8.47;;;2.93;;
5742;SDS011;2896;53.500;10.020;2022-07-22T10:00:09;7.97;;;2.30;;
5742;SDS011;2896;53.500;10.020;2022-07-22T10:02:40;8.73;;;2.40;;
5742;SDS011;2896;53.500;10.020;2022-07-22T10:05:11;8.07;;;2.47;;
5742;SDS011;2896;53.500;10.020;2022-07-22T10:07:42;8.00;;;2.30;;
5742;SDS011;2896;53.500;10.020;2022-07-22T10:10:11;13.17;;;2.30;;
5742;SDS011;2896;53.500;10.020;2022-07-22T10:12:39;15.23;;;2.80;;
5742;SDS011;2896;53.500;10.020;2022-07-22T10:15:07;8.63;;;2.77;;
5742;SDS011;2896;53.500;10.020;2022-07-22T10:17:35;10.80;;;2.47;;
5742;SDS011;2896;53.500;10.020;2022-07-22T10:20:03;12.57;;;2.83;;
5742;SDS011;2896;53.500;10.020;2022-07-22T10:22:45;11.43;;;2.67;;
5742;SDS011;2896;53.500;10.020;2022-07-22T10:25:15;14.80;;;2.53;;
5742;SDS011;2896;53.500;10.020;2022-07-22T10:27:43;12.53;;;2.30;;
5742;SDS011;2896;53.500;10.020;2022-07-22T10:30:12;7.77;;;2.20;;
5742;SDS011;2896;53.500;10.020;2022-07-22T10:32:39;7.10;;;2.07;;
5742;SDS011;2896;53.500;10.020;2022-07-22T10:35:22;6.93;;;2.50;;
5742;SDS011;2896;53.500;10.020;2022-07-22T10:37:54;10.23;;;2.53;;
5742;SDS011;2896;53.500;10.020;2022-07-22T10:40:23;5.57;;;2.00;;
5742;SDS011;2896;53.500;10.020;2022-07-22T10:43:08;14.07;;;2.77;;
5742;SDS011;2896;53.500;10.020;2022-07-22T10:45:35;7.40;;;3.07;;
5742;SDS011;2896;53.500;10.020;2022-07-22T10:48:05;14.63;;;2.60;;
5742;SDS011;2896;53.500;10.020;2022-07-22T10:50:41;7.80;;;2.33;;
5742;SDS011;2896;53.500;10.020;2022-07-22T10:53:16;10.60;;;2.30;;
5742;SDS011;2896;53.500;10.020;2022-07-22T10:55:57;7.27;;;2.50;;
5742;SDS011;2896;53.500;10.020;2022-07-22T10:58:39;8.23;;;2.73;;
5742;SDS011;2896;53.500;10.020;2022-07-22T11:01:11;10.80;;;2.03;;
5742;SDS011;2896;53.500;10.020;2022-07-22T11:03:39;4.67;;;2.40;;
5742;SDS011;2896;53.500;10.020;2022-07-22T11:06:14;5.13;;;2.33;;
5742;SDS011;2896;53.500;10.020;2022-07-22T11:08:48;9.03;;;2.60;;
5742;SDS011;2896;53.500;10.020;2022-07-22T11:11:17;5.97;;;2.00;;
5742;SDS011;2896;53.500;10.020;2022-07-22T11:13:44;4.87;;;2.37;;
5742;SDS011;2896;53.500;10.020;2022-07-22T11:16:15;10.20;;;2.43;;
5742;SDS011;2896;53.500;10.020;2022-07-22T11:18:50;9.63;;;2.83;;
5742;SDS011;2896;53.500;10.020;2022-07-22T11:21:19;6.43;;;2.33;;
5742;SDS011;2896;53.500;10.020;2022-07-22T11:23:49;14.03;;;2.43;;
5742;SDS011;2896;53.500;10.020;2022-07-22T11:26:18;9.47;;;2.10;;
5742;SDS011;2896;53.500;10.020;2022-07-22T11:28:48;8.00;;;2.47;;
5742;SDS011;2896;53.500;10.020;2022-07-22T11:31:16;5.40;;;1.90;;
5742;SDS011;2896;53.500;10.020;2022-07-22T11:33:44;4.73;;;2.30;;
5742;SDS011;2896;53.500;10.020;2022-07-22T11:36:11;6.33;;;1.87;;
5742;SDS011;2896;53.500;10.020;2022-07-22T11:38:45;6.53;;;1.80;;
5742;SDS011;2896;53.500;10.020;2022-07-22T11:41:14;9.40;;;2.17;;
5742;SDS011;2896;53.500;10.020;2022-07-22T11:43:43;5.70;;;2.33;;
5742;SDS011;2896;53.500;10.020;2022-07-22T11:46:11;11.80;;;2.13;;
5742;SDS011;2896;53.500;10.020;2022-07-22T11:48:37;7.17;;;2.23;;
5742;SDS011;2896;53.500;10.020;2022-07-22T11:51:05;3.20;;;1.80;;
5742;SDS011;2896;53.500;10.020;2022-07-22T11:53:34;4.47;;;1.97;;
5742;SDS011;2896;53.500;10.020;2022-07-22T11:56:03;11.73;;;2.43;;
5742;SDS011;2896;53.500;10.020;2022-07-22T11:58:39;10.43;;;2.10;;
5742;SDS011;2896;53.500;10.020;2022-07-22T12:01:08;10.03;;;2.60;;
5742;SDS011;2896;53.500;10.020;2022-07-22T12:03:36;7.33;;;2.00;;
5742;SDS011;2896;53.500;10.020;2022-07-22T12:06:06;8.97;;;2.20;;
5742;SDS011;2896;53.500;10.020;2022-07-22T12:08:34;11.20;;;2.47;;
5742;SDS011;2896;53.500;10.020;2022-07-22T12:11:07;9.87;;;2.13;;
5742;SDS011;2896;53.500;10.020;2022-07-22T12:13:34;8.57;;;2.20;;
5742;SDS011;2896;53.500;10.020;2022-07-22T12:18:50;6.07;;;2.30;;
5742;SDS011;2896;53.500;10.020;2022-07-22T12:21:18;8.33;;;2.20;;
5742;SDS011;2896;53.500;10.020;2022-07-22T12:23:49;7.10;;;2.30;;
5742;SDS011;2896;53.500;10.020;2022-07-22T12:26:17;13.10;;;2.03;;
5742;SDS011;2896;53.500;10.020;2022-07-22T12:28:43;6.70;;;2.10;;
5742;SDS011;2896;53.500;10.020;2022-07-22T12:31:10;7.33;;;2.10;;
5742;SDS011;2896;53.500;10.020;2022-07-22T12:33:38;7.80;;;1.97;;
5742;SDS011;2896;53.500;10.020;2022-07-22T12:36:13;8.93;;;2.20;;
5742;SDS011;2896;53.500;10.020;2022-07-22T12:38:40;10.70;;;2.00;;
5742;SDS011;2896;53.500;10.020;2022-07-22T12:41:23;5.47;;;2.30;;
5742;SDS011;2896;53.500;10.020;2022-07-22T12:43:51;11.00;;;2.47;;
5742;SDS011;2896;53.500;10.020;2022-07-22T12:46:18;5.07;;;2.23;;
5742;SDS011;2896;53.500;10.020;2022-07-22T12:48:51;4.77;;;1.57;;
5742;SDS011;2896;53.500;10.020;2022-07-22T12:51:18;7.00;;;2.23;;
5742;SDS011;2896;53.500;10.020;2022-07-22T12:53:45;3.97;;;1.73;;
5742;SDS011;2896;53.500;10.020;2022-07-22T12:56:12;6.90;;;2.47;;
5742;SDS011;2896;53.500;10.020;2022-07-22T12:58:39;2.40;;;1.40;;
5742;SDS011;2896;53.500;10.020;2022-07-22T13:01:06;3.83;;;1.73;;
5742;SDS011;2896;53.500;10.020;2022-07-22T13:03:34;7.87;;;1.90;;
5742;SDS011;2896;53.500;10.020;2022-07-22T13:06:03;11.73;;;2.67;;
5742;SDS011;2896;53.500;10.020;2022-07-22T13:08:32;4.33;;;2.10;;
5742;SDS011;2896;53.500;10.020;2022-07-22T13:10:58;6.20;;;1.90;;
5742;SDS011;2896;53.500;10.020;2022-07-22T13:13:25;8.20;;;2.60;;
5742;SDS011;2896;53.500;10.020;2022-07-22T13:15:52;4.97;;;2.00;;
5742;SDS011;2896;53.500;10.020;2022-07-22T13:18:19;6.83;;;2.10;;
5742;SDS011;2896;53.500;10.020;2022-07-22T13:20:46;7.50;;;2.30;;
5742;SDS011;2896;53.500;10.020;2022-07-22T13:23:14;7.60;;;2.40;;
5742;SDS011;2896;53.500;10.020;2022-07-22T13:25:41;4.07;;;1.90;;
5742;SDS011;2896;53.500;10.020;2022-07-22T13:28:07;6.80;;;2.73;;
5742;SDS011;2896;53.500;10.020;2022-07-22T13:30:34;13.80;;;3.03;;
5742;SDS011;2896;53.500;10.020;2022-07-22T13:33:01;4.40;;;1.80;;
5742;SDS011;2896;53.500;10.020;2022-07-22T13:35:28;3.03;;;2.23;;
5742;SDS011;2896;53.500;10.020;2022-07-22T13:37:55;8.27;;;2.10;;
5742;SDS011;2896;53.500;10.020;2022-07-22T13:40:24;3.33;;;1.90;;
5742;SDS011;2896;53.500;10.020;2022-07-22T13:42:50;3.70;;;2.30;;
5742;SDS011;2896;53.500;10.020;2022-07-22T13:45:17;4.83;;;2.13;;
5742;SDS011;2896;53.500;10.020;2022-07-22T13:47:45;5.90;;;2.27;;
5742;SDS011;2896;53.500;10.020;2022-07-22T13:50:11;6.23;;;2.10;;
5742;SDS011;2896;53.500;10.020;2022-07-22T13:52:38;7.57;;;2.27;;
5742;SDS011;2896;53.500;10.020;2022-07-22T13:55:05;7.17;;;1.70;;
5742;SDS011;2896;53.500;10.020;2022-07-22T13:57:33;5.60;;;1.87;;
5742;SDS011;2896;53.500;10.020;2022-07-22T14:00:00;5.47;;;2.30;;
5742;SDS011;2896;53.500;10.020;2022-07-22T14:02:27;6.30;;;1.93;;
5742;SDS011;2896;53.500;10.020;2022-07-22T14:04:54;11.20;;;2.10;;
5742;SDS011;2896;53.500;10.020;2022-07-22T14:07:20;7.93;;;2.30;;
5742;SDS011;2896;53.500;10.020;2022-07-22T14:09:47;4.83;;;1.70;;
5742;SDS011;2896;53.500;10.020;2022-07-22T14:12:13;3.83;;;2.00;;
5742;SDS011;2896;53.500;10.020;2022-07-22T14:14:43;6.30;;;2.07;;
5742;SDS011;2896;53.500;10.020;2022-07-22T14:17:09;2.90;;;1.70;;
5742;SDS011;2896;53.500;10.020;2022-07-22T14:19:36;6.30;;;2.83;;
5742;SDS011;2896;53.500;10.020;2022-07-22T14:22:03;7.03;;;2.33;;
5742;SDS011;2896;53.500;10.020;2022-07-22T14:24:29;12.07;;;2.03;;
5742;SDS011;2896;53.500;10.020;2022-07-22T14:26:56;8.00;;;1.80;;
5742;SDS011;2896;53.500;10.020;2022-07-22T14:29:24;7.23;;;2.23;;
5742;SDS011;2896;53.500;10.020;2022-07-22T14:31:52;9.60;;;2.03;;
5742;SDS011;2896;53.500;10.020;2022-07-22T14:34:18;10.87;;;2.10;;
5742;SDS011;2896;53.500;10.020;2022-07-22T14:36:47;12.50;;;2.73;;
5742;SDS011;2896;53.500;10.020;2022-07-22T14:39:13;7.07;;;2.43;;
5742;SDS011;2896;53.500;10.020;2022-07-22T14:41:40;9.03;;;2.27;;
5742;SDS011;2896;53.500;10.020;2022-07-22T14:44:07;9.83;;;2.17;;
5742;SDS011;2896;53.500;10.020;2022-07-22T14:46:33;6.43;;;1.97;;
5742;SDS011;2896;53.500;10.020;2022-07-22T14:49:01;7.07;;;1.60;;
5742;SDS011;2896;53.500;10.020;2022-07-22T14:51:28;9.93;;;2.27;;
5742;SDS011;2896;53.500;10.020;2022-07-22T14:53:55;2.83;;;1.60;;
5742;SDS011;2896;53.500;10.020;2022-07-22T14:56:22;9.27;;;2.07;;
5742;SDS011;2896;53.500;10.020;2022-07-22T14:58:48;4.47;;;1.60;;
5742;SDS011;2896;53.500;10.020;2022-07-22T15:01:15;3.67;;;1.70;;